Aurora, New York
Current Conditions -  °F | °C
As of 7:53 AM on Saturday 25 Oct 2014 (Local Time) from KPEO Reporting Station
Overcast Overcast  
Wind Chill: 50°   Ceiling: 5500
Heat Index: 50°   Visibility: 9mi
Dew Point: 43°   Wind: 8mph
Humidity: 77%   Direction: 210°SSW
Pressure: 29.84"   Gusts: NA
Location:  42.75°N, 76.7°W
Report Text: KPEO 251153Z AUTO 21007KT 9SM OVC055 10/06 A2984 RMK AO2 SLP108 T01000061 10100 20089 56013
Loading
Personal Weather Stations






























Interactive Weather Map
Tropical Storm Tracking
New forecast layout! Learn more

10-Day Weather Forecast

Advertisements
Track Severe Weather on mobile